sensor_id;sensor_type;location;lat;lon;timestamp;temperature;humidity
19397;DHT22;9834;48.076;11.878;2024-01-10T00:01:50;-6.30;99.90
19397;DHT22;9834;48.076;11.878;2024-01-10T00:04:23;-6.30;99.90
19397;DHT22;9834;48.076;11.878;2024-01-10T00:06:51;-6.30;99.90
19397;DHT22;9834;48.076;11.878;2024-01-10T00:09:20;-6.20;99.90
19397;DHT22;9834;48.076;11.878;2024-01-10T00:11:54;-6.30;99.90
19397;DHT22;9834;48.076;11.878;2024-01-10T00:14:24;-6.30;99.90
19397;DHT22;9834;48.076;11.878;2024-01-10T00:16:53;-6.30;99.90
19397;DHT22;9834;48.076;11.878;2024-01-10T00:19:20;-6.20;99.90
19397;DHT22;9834;48.076;11.878;2024-01-10T00:21:48;-6.10;99.90
19397;DHT22;9834;48.076;11.878;2024-01-10T00:24:15;-6.10;99.90
19397;DHT22;9834;48.076;11.878;2024-01-10T00:26:42;-6.00;99.90
19397;DHT22;9834;48.076;11.878;2024-01-10T00:29:09;-5.90;99.90
19397;DHT22;9834;48.076;11.878;2024-01-10T00:31:36;-5.90;99.90
19397;DHT22;9834;48.076;11.878;2024-01-10T00:34:07;-5.90;99.90
19397;DHT22;9834;48.076;11.878;2024-01-10T00:36:43;-5.90;99.90
19397;DHT22;9834;48.076;11.878;2024-01-10T00:39:11;-5.90;99.90
19397;DHT22;9834;48.076;11.878;2024-01-10T00:41:43;-5.80;99.90
19397;DHT22;9834;48.076;11.878;2024-01-10T00:44:11;-5.80;99.90
19397;DHT22;9834;48.076;11.878;2024-01-10T00:46:40;-5.80;99.90
19397;DHT22;9834;48.076;11.878;2024-01-10T00:49:16;-5.80;99.90
19397;DHT22;9834;48.076;11.878;2024-01-10T00:51:49;-5.80;99.90
19397;DHT22;9834;48.076;11.878;2024-01-10T00:54:20;-5.80;99.90
19397;DHT22;9834;48.076;11.878;2024-01-10T00:57:01;-5.80;99.90
19397;DHT22;9834;48.076;11.878;2024-01-10T00:59:30;-5.80;99.90
19397;DHT22;9834;48.076;11.878;2024-01-10T01:02:01;-5.80;99.90
19397;DHT22;9834;48.076;11.878;2024-01-10T01:04:34;-5.80;99.90
19397;DHT22;9834;48.076;11.878;2024-01-10T01:07:02;-5.90;99.90
19397;DHT22;9834;48.076;11.878;2024-01-10T01:09:33;-5.90;99.90
19397;DHT22;9834;48.076;11.878;2024-01-10T01:12:03;-6.00;99.90
19397;DHT22;9834;48.076;11.878;2024-01-10T01:14:35;-6.00;99.90
19397;DHT22;9834;48.076;11.878;2024-01-10T01:17:03;-6.00;99.90
19397;DHT22;9834;48.076;11.878;2024-01-10T01:19:33;-6.00;99.90
19397;DHT22;9834;48.076;11.878;2024-01-10T01:22:02;-6.00;99.90
19397;DHT22;9834;48.076;11.878;2024-01-10T01:24:32;-6.00;99.90
19397;DHT22;9834;48.076;11.878;2024-01-10T01:27:03;-6.00;99.90
19397;DHT22;9834;48.076;11.878;2024-01-10T01:29:38;-6.00;99.90
19397;DHT22;9834;48.076;11.878;2024-01-10T01:32:06;-6.00;99.90
19397;DHT22;9834;48.076;11.878;2024-01-10T01:34:38;-6.00;99.90
19397;DHT22;9834;48.076;11.878;2024-01-10T01:37:09;-6.00;99.90
19397;DHT22;9834;48.076;11.878;2024-01-10T01:39:36;-6.00;99.90
19397;DHT22;9834;48.076;11.878;2024-01-10T01:42:05;-6.00;99.90
19397;DHT22;9834;48.076;11.878;2024-01-10T01:44:35;-6.00;99.90
19397;DHT22;9834;48.076;11.878;2024-01-10T01:47:07;-5.90;99.90
19397;DHT22;9834;48.076;11.878;2024-01-10T01:49:39;-5.90;99.90
19397;DHT22;9834;48.076;11.878;2024-01-10T01:52:08;-5.90;99.90
19397;DHT22;9834;48.076;11.878;2024-01-10T01:54:42;-5.90;99.90
19397;DHT22;9834;48.076;11.878;2024-01-10T01:57:09;-6.00;99.90
19397;DHT22;9834;48.076;11.878;2024-01-10T01:59:42;-6.00;99.90
19397;DHT22;9834;48.076;11.878;2024-01-10T02:02:16;-5.90;99.90
19397;DHT22;9834;48.076;11.878;2024-01-10T02:04:51;-5.90;99.90
19397;DHT22;9834;48.076;11.878;2024-01-10T02:07:21;-6.00;99.90
19397;DHT22;9834;48.076;11.878;2024-01-10T02:09:51;-5.90;99.90
19397;DHT22;9834;48.076;11.878;2024-01-10T02:12:22;-6.00;99.90
19397;DHT22;9834;48.076;11.878;2024-01-10T02:14:52;-6.00;99.90
19397;DHT22;9834;48.076;11.878;2024-01-10T02:17:24;-6.00;99.90
19397;DHT22;9834;48.076;11.878;2024-01-10T02:23:04;-6.00;99.90
19397;DHT22;9834;48.076;11.878;2024-01-10T02:25:36;-6.00;99.90
19397;DHT22;9834;48.076;11.878;2024-01-10T02:28:07;-6.00;99.90
19397;DHT22;9834;48.076;11.878;2024-01-10T02:30:38;-6.10;99.90
19397;DHT22;9834;48.076;11.878;2024-01-10T02:33:09;-6.10;99.90
19397;DHT22;9834;48.076;11.878;2024-01-10T02:35:40;-6.10;99.90
19397;DHT22;9834;48.076;11.878;2024-01-10T02:38:07;-6.10;99.90
19397;DHT22;9834;48.076;11.878;2024-01-10T02:40:38;-6.10;99.90
19397;DHT22;9834;48.076;11.878;2024-01-10T02:43:08;-6.00;99.90
19397;DHT22;9834;48.076;11.878;2024-01-10T02:45:38;-6.00;99.90
19397;DHT22;9834;48.076;11.878;2024-01-10T02:48:11;-5.90;99.90
19397;DHT22;9834;48.076;11.878;2024-01-10T02:50:38;-5.90;99.90
19397;DHT22;9834;48.076;11.878;2024-01-10T02:53:09;-5.80;99.90
19397;DHT22;9834;48.076;11.878;2024-01-10T02:55:45;-5.80;99.90
19397;DHT22;9834;48.076;11.878;2024-01-10T02:58:17;-5.80;99.90
19397;DHT22;9834;48.076;11.878;2024-01-10T03:00:47;-5.90;99.90
19397;DHT22;9834;48.076;11.878;2024-01-10T03:03:17;-5.90;99.90
19397;DHT22;9834;48.076;11.878;2024-01-10T03:05:45;-6.00;99.90
19397;DHT22;9834;48.076;11.878;2024-01-10T03:08:12;-6.10;99.90
19397;DHT22;9834;48.076;11.878;2024-01-10T03:10:44;-6.00;99.90
19397;DHT22;9834;48.076;11.878;2024-01-10T03:13:11;-6.00;99.90
19397;DHT22;9834;48.076;11.878;2024-01-10T03:15:39;-5.90;99.90
19397;DHT22;9834;48.076;11.878;2024-01-10T03:18:09;-5.90;99.90
19397;DHT22;9834;48.076;11.878;2024-01-10T03:20:40;-5.90;99.90
19397;DHT22;9834;48.076;11.878;2024-01-10T03:23:11;-5.80;99.90
19397;DHT22;9834;48.076;11.878;2024-01-10T03:25:40;-6.00;99.90
19397;DHT22;9834;48.076;11.878;2024-01-10T03:28:10;-6.00;99.90
19397;DHT22;9834;48.076;11.878;2024-01-10T03:30:38;-6.10;99.90
19397;DHT22;9834;48.076;11.878;2024-01-10T03:33:15;-6.00;99.90
19397;DHT22;9834;48.076;11.878;2024-01-10T03:35:45;-5.90;99.90
19397;DHT22;9834;48.076;11.878;2024-01-10T03:38:12;-5.90;99.90
19397;DHT22;9834;48.076;11.878;2024-01-10T03:40:43;-5.90;99.90
19397;DHT22;9834;48.076;11.878;2024-01-10T03:43:17;-5.90;99.90
19397;DHT22;9834;48.076;11.878;2024-01-10T03:45:47;-5.80;99.90
19397;DHT22;9834;48.076;11.878;2024-01-10T03:48:14;-5.80;99.90
19397;DHT22;9834;48.076;11.878;2024-01-10T03:50:42;-5.80;99.90
19397;DHT22;9834;48.076;11.878;2024-01-10T03:53:09;-5.80;99.90
19397;DHT22;9834;48.076;11.878;2024-01-10T03:55:37;-5.80;99.90
19397;DHT22;9834;48.076;11.878;2024-01-10T03:58:08;-5.80;99.90
19397;DHT22;9834;48.076;11.878;2024-01-10T04:00:44;-5.90;99.90
19397;DHT22;9834;48.076;11.878;2024-01-10T04:03:12;-5.90;99.90
19397;DHT22;9834;48.076;11.878;2024-01-10T04:05:44;-6.00;99.90
19397;DHT22;9834;48.076;11.878;2024-01-10T04:08:14;-6.10;99.90
19397;DHT22;9834;48.076;11.878;2024-01-10T04:10:47;-5.90;99.90
19397;DHT22;9834;48.076;11.878;2024-01-10T04:13:19;-5.90;99.90
19397;DHT22;9834;48.076;11.878;2024-01-10T04:15:52;-6.00;99.90
19397;DHT22;9834;48.076;11.878;2024-01-10T04:18:28;-5.40;99.90
19397;DHT22;9834;48.076;11.878;2024-01-10T04:21:06;-5.90;99.90
19397;DHT22;9834;48.076;11.878;2024-01-10T04:23:34;-5.80;99.90
19397;DHT22;9834;48.076;11.878;2024-01-10T04:26:02;-5.80;99.90
19397;DHT22;9834;48.076;11.878;2024-01-10T04:28:34;-5.80;99.90
19397;DHT22;9834;48.076;11.878;2024-01-10T04:31:04;-5.80;99.90
19397;DHT22;9834;48.076;11.878;2024-01-10T04:33:32;-5.80;99.90
19397;DHT22;9834;48.076;11.878;2024-01-10T04:36:02;-5.90;99.90
19397;DHT22;9834;48.076;11.878;2024-01-10T04:38:30;-5.80;99.90
19397;DHT22;9834;48.076;11.878;2024-01-10T04:40:58;-5.80;99.90
19397;DHT22;9834;48.076;11.878;2024-01-10T04:43:27;-5.80;99.90
19397;DHT22;9834;48.076;11.878;2024-01-10T04:45:57;-5.70;99.90
19397;DHT22;9834;48.076;11.878;2024-01-10T04:48:25;-5.70;99.90
19397;DHT22;9834;48.076;11.878;2024-01-10T04:50:53;-5.70;99.90
19397;DHT22;9834;48.076;11.878;2024-01-10T04:53:23;-5.70;99.90
19397;DHT22;9834;48.076;11.878;2024-01-10T04:55:53;-5.60;99.90
19397;DHT22;9834;48.076;11.878;2024-01-10T04:58:20;-5.60;99.90
19397;DHT22;9834;48.076;11.878;2024-01-10T05:00:54;-5.60;99.90
19397;DHT22;9834;48.076;11.878;2024-01-10T05:03:25;-5.60;99.90
19397;DHT22;9834;48.076;11.878;2024-01-10T05:05:52;-5.60;99.90
19397;DHT22;9834;48.076;11.878;2024-01-10T05:08:20;-5.60;99.90
19397;DHT22;9834;48.076;11.878;2024-01-10T05:10:50;-5.60;99.90
19397;DHT22;9834;48.076;11.878;2024-01-10T05:13:19;-5.60;99.90
19397;DHT22;9834;48.076;11.878;2024-01-10T05:15:48;-5.60;99.90
19397;DHT22;9834;48.076;11.878;2024-01-10T05:18:30;-5.70;99.90
19397;DHT22;9834;48.076;11.878;2024-01-10T05:20:58;-5.70;99.90
19397;DHT22;9834;48.076;11.878;2024-01-10T05:23:32;-5.70;99.90
19397;DHT22;9834;48.076;11.878;2024-01-10T05:25:59;-5.70;99.90
19397;DHT22;9834;48.076;11.878;2024-01-10T05:28:32;-5.80;99.90
19397;DHT22;9834;48.076;11.878;2024-01-10T05:30:59;-5.80;99.90
19397;DHT22;9834;48.076;11.878;2024-01-10T05:33:28;-5.80;99.90
19397;DHT22;9834;48.076;11.878;2024-01-10T05:35:58;-5.80;99.90
19397;DHT22;9834;48.076;11.878;2024-01-10T05:38:26;-5.70;99.90
19397;DHT22;9834;48.076;11.878;2024-01-10T05:41:00;-5.70;99.90
19397;DHT22;9834;48.076;11.878;2024-01-10T05:43:28;-5.60;99.90
19397;DHT22;9834;48.076;11.878;2024-01-10T05:45:58;-5.60;99.90
19397;DHT22;9834;48.076;11.878;2024-01-10T05:48:27;-5.60;99.90
19397;DHT22;9834;48.076;11.878;2024-01-10T05:50:54;-5.60;99.90
19397;DHT22;9834;48.076;11.878;2024-01-10T05:53:24;-5.70;99.90
19397;DHT22;9834;48.076;11.878;2024-01-10T05:55:51;-5.70;99.90
19397;DHT22;9834;48.076;11.878;2024-01-10T05:58:19;-5.60;99.90
19397;DHT22;9834;48.076;11.878;2024-01-10T06:00:46;-5.70;99.90
19397;DHT22;9834;48.076;11.878;2024-01-10T06:03:16;-5.60;99.90
19397;DHT22;9834;48.076;11.878;2024-01-10T06:05:44;-5.70;99.90
19397;DHT22;9834;48.076;11.878;2024-01-10T06:08:11;-5.00;99.90
19397;DHT22;9834;48.076;11.878;2024-01-10T06:10:40;-5.70;99.90
19397;DHT22;9834;48.076;11.878;2024-01-10T06:13:09;-5.70;99.90
19397;DHT22;9834;48.076;11.878;2024-01-10T06:15:40;-5.70;99.90
19397;DHT22;9834;48.076;11.878;2024-01-10T06:18:12;-5.70;99.90
19397;DHT22;9834;48.076;11.878;2024-01-10T06:20:42;-5.70;99.90
19397;DHT22;9834;48.076;11.878;2024-01-10T06:23:10;-5.70;99.90
19397;DHT22;9834;48.076;11.878;2024-01-10T06:25:38;-5.70;99.90
19397;DHT22;9834;48.076;11.878;2024-01-10T06:28:05;-6.10;99.90
19397;DHT22;9834;48.076;11.878;2024-01-10T06:30:32;-5.80;99.90
19397;DHT22;9834;48.076;11.878;2024-01-10T06:33:09;-5.70;99.90
19397;DHT22;9834;48.076;11.878;2024-01-10T06:35:39;-5.80;99.90
19397;DHT22;9834;48.076;11.878;2024-01-10T06:38:10;-5.80;99.90
19397;DHT22;9834;48.076;11.878;2024-01-10T06:40:40;-5.80;99.90
19397;DHT22;9834;48.076;11.878;2024-01-10T06:43:13;-5.90;99.90
19397;DHT22;9834;48.076;11.878;2024-01-10T06:45:47;-5.90;99.90
19397;DHT22;9834;48.076;11.878;2024-01-10T06:48:15;-5.90;99.90
19397;DHT22;9834;48.076;11.878;2024-01-10T06:50:42;-5.90;99.90
19397;DHT22;9834;48.076;11.878;2024-01-10T06:53:11;-5.90;99.90
19397;DHT22;9834;48.076;11.878;2024-01-10T06:55:40;-6.10;99.90
19397;DHT22;9834;48.076;11.878;2024-01-10T06:58:07;-6.10;99.90
19397;DHT22;9834;48.076;11.878;2024-01-10T07:00:35;-6.20;99.90
19397;DHT22;9834;48.076;11.878;2024-01-10T07:03:04;-6.20;99.90
19397;DHT22;9834;48.076;11.878;2024-01-10T07:05:32;-6.10;99.90
19397;DHT22;9834;48.076;11.878;2024-01-10T07:07:59;-6.00;99.90
19397;DHT22;9834;48.076;11.878;2024-01-10T07:10:30;-6.00;99.90
19397;DHT22;9834;48.076;11.878;2024-01-10T07:13:06;-6.00;99.90
19397;DHT22;9834;48.076;11.878;2024-01-10T07:15:33;-5.90;99.90
19397;DHT22;9834;48.076;11.878;2024-01-10T07:18:01;-5.80;99.90
19397;DHT22;9834;48.076;11.878;2024-01-10T07:20:28;-5.80;99.90
19397;DHT22;9834;48.076;11.878;2024-01-10T07:22:56;-5.70;99.90
19397;DHT22;9834;48.076;11.878;2024-01-10T07:25:34;-5.70;99.90
19397;DHT22;9834;48.076;11.878;2024-01-10T07:28:03;-5.70;99.90
19397;DHT22;9834;48.076;11.878;2024-01-10T07:30:35;-5.60;99.90
19397;DHT22;9834;48.076;11.878;2024-01-10T07:33:03;-5.60;99.90
19397;DHT22;9834;48.076;11.878;2024-01-10T07:35:33;-5.60;99.90
19397;DHT22;9834;48.076;11.878;2024-01-10T07:38:02;-5.50;99.90
19397;DHT22;9834;48.076;11.878;2024-01-10T07:40:38;-5.50;99.90
19397;DHT22;9834;48.076;11.878;2024-01-10T07:43:05;-5.60;99.90
19397;DHT22;9834;48.076;11.878;2024-01-10T07:45:33;-5.50;99.90
19397;DHT22;9834;48.076;11.878;2024-01-10T07:48:08;-5.50;99.90
19397;DHT22;9834;48.076;11.878;2024-01-10T07:50:36;-5.40;99.90
19397;DHT22;9834;48.076;11.878;2024-01-10T07:53:04;-5.30;99.90
19397;DHT22;9834;48.076;11.878;2024-01-10T07:55:32;-5.20;99.90
19397;DHT22;9834;48.076;11.878;2024-01-10T07:58:06;-5.10;99.90
19397;DHT22;9834;48.076;11.878;2024-01-10T08:00:34;-5.10;99.90
19397;DHT22;9834;48.076;11.878;2024-01-10T08:03:05;-5.10;99.90
19397;DHT22;9834;48.076;11.878;2024-01-10T08:05:32;-5.00;99.90
19397;DHT22;9834;48.076;11.878;2024-01-10T08:08:03;-5.00;99.90
19397;DHT22;9834;48.076;11.878;2024-01-10T08:10:31;-4.90;99.90
19397;DHT22;9834;48.076;11.878;2024-01-10T08:13:02;-4.80;99.90
19397;DHT22;9834;48.076;11.878;2024-01-10T08:15:30;-4.70;99.90
19397;DHT22;9834;48.076;11.878;2024-01-10T08:18:00;-4.60;99.90
19397;DHT22;9834;48.076;11.878;2024-01-10T08:20:28;-4.40;99.90
19397;DHT22;9834;48.076;11.878;2024-01-10T08:23:00;-4.30;99.90
19397;DHT22;9834;48.076;11.878;2024-01-10T08:25:34;-4.40;99.90
19397;DHT22;9834;48.076;11.878;2024-01-10T08:28:08;-4.30;99.90
19397;DHT22;9834;48.076;11.878;2024-01-10T08:30:36;-4.20;99.90
19397;DHT22;9834;48.076;11.878;2024-01-10T08:33:04;-4.10;99.90
19397;DHT22;9834;48.076;11.878;2024-01-10T08:35:31;-4.00;99.90
19397;DHT22;9834;48.076;11.878;2024-01-10T08:37:59;-4.10;99.90
19397;DHT22;9834;48.076;11.878;2024-01-10T08:40:28;-3.90;99.90
19397;DHT22;9834;48.076;11.878;2024-01-10T08:43:09;-3.90;99.90
19397;DHT22;9834;48.076;11.878;2024-01-10T08:45:47;-3.90;99.90
19397;DHT22;9834;48.076;11.878;2024-01-10T08:48:14;-3.90;99.90
19397;DHT22;9834;48.076;11.878;2024-01-10T08:50:48;-3.80;99.90
19397;DHT22;9834;48.076;11.878;2024-01-10T08:53:16;-3.90;99.90
19397;DHT22;9834;48.076;11.878;2024-01-10T08:55:43;-4.00;99.90
19397;DHT22;9834;48.076;11.878;2024-01-10T08:58:14;-4.10;99.90
19397;DHT22;9834;48.076;11.878;2024-01-10T09:00:42;-4.10;99.90
19397;DHT22;9834;48.076;11.878;2024-01-10T09:03:09;-3.80;99.90
19397;DHT22;9834;48.076;11.878;2024-01-10T09:05:43;-3.70;99.90
19397;DHT22;9834;48.076;11.878;2024-01-10T09:08:13;-3.60;99.90
19397;DHT22;9834;48.076;11.878;2024-01-10T09:10:41;-3.60;99.90
19397;DHT22;9834;48.076;11.878;2024-01-10T09:13:09;-3.50;99.90
19397;DHT22;9834;48.076;11.878;2024-01-10T09:15:42;-3.60;99.90
19397;DHT22;9834;48.076;11.878;2024-01-10T09:18:13;-3.40;99.90
19397;DHT22;9834;48.076;11.878;2024-01-10T09:20:50;-3.30;99.90
19397;DHT22;9834;48.076;11.878;2024-01-10T09:23:20;-3.40;99.90
19397;DHT22;9834;48.076;11.878;2024-01-10T09:25:50;-3.40;99.90
19397;DHT22;9834;48.076;11.878;2024-01-10T09:28:19;-3.40;99.90
19397;DHT22;9834;48.076;11.878;2024-01-10T09:30:48;-3.40;99.90
19397;DHT22;9834;48.076;11.878;2024-01-10T09:33:19;-3.50;99.90
19397;DHT22;9834;48.076;11.878;2024-01-10T09:35:50;-3.50;99.90
19397;DHT22;9834;48.076;11.878;2024-01-10T09:38:23;-3.40;99.90
19397;DHT22;9834;48.076;11.878;2024-01-10T09:40:53;-3.30;99.90
19397;DHT22;9834;48.076;11.878;2024-01-10T09:43:25;-3.20;99.90
19397;DHT22;9834;48.076;11.878;2024-01-10T09:45:54;-3.10;99.90
19397;DHT22;9834;48.076;11.878;2024-01-10T09:48:26;-3.00;99.90
19397;DHT22;9834;48.076;11.878;2024-01-10T09:50:54;-3.20;99.90
19397;DHT22;9834;48.076;11.878;2024-01-10T09:53:23;-3.40;99.90
19397;DHT22;9834;48.076;11.878;2024-01-10T09:55:55;-3.20;99.90
19397;DHT22;9834;48.076;11.878;2024-01-10T09:58:26;-3.30;99.90
19397;DHT22;9834;48.076;11.878;2024-01-10T10:00:57;-3.30;99.90
19397;DHT22;9834;48.076;11.878;2024-01-10T10:03:32;-3.40;99.90
19397;DHT22;9834;48.076;11.878;2024-01-10T10:06:02;-3.90;99.90
19397;DHT22;9834;48.076;11.878;2024-01-10T10:08:30;-3.10;99.90
19397;DHT22;9834;48.076;11.878;2024-01-10T10:11:00;-2.90;99.90
19397;DHT22;9834;48.076;11.878;2024-01-10T10:13:29;-2.70;99.90
19397;DHT22;9834;48.076;11.878;2024-01-10T10:16:02;-2.60;99.90
19397;DHT22;9834;48.076;11.878;2024-01-10T10:18:31;-2.40;99.90
19397;DHT22;9834;48.076;11.878;2024-01-10T10:21:08;-2.20;99.90
19397;DHT22;9834;48.076;11.878;2024-01-10T10:23:40;-2.30;99.90
19397;DHT22;9834;48.076;11.878;2024-01-10T10:26:13;-2.20;99.90
19397;DHT22;9834;48.076;11.878;2024-01-10T10:28:51;-2.10;99.90
19397;DHT22;9834;48.076;11.878;2024-01-10T10:31:21;-2.00;99.90
19397;DHT22;9834;48.076;11.878;2024-01-10T10:33:49;-1.90;99.90
19397;DHT22;9834;48.076;11.878;2024-01-10T10:36:17;-1.80;99.90
19397;DHT22;9834;48.076;11.878;2024-01-10T10:38:47;-1.90;99.90
19397;DHT22;9834;48.076;11.878;2024-01-10T10:41:18;-1.80;99.90
19397;DHT22;9834;48.076;11.878;2024-01-10T10:43:47;-1.80;99.90
19397;DHT22;9834;48.076;11.878;2024-01-10T10:46:16;-1.70;99.90
19397;DHT22;9834;48.076;11.878;2024-01-10T10:48:57;-1.60;99.90
19397;DHT22;9834;48.076;11.878;2024-01-10T10:51:37;-1.40;99.90
19397;DHT22;9834;48.076;11.878;2024-01-10T10:54:12;-1.10;99.90
19397;DHT22;9834;48.076;11.878;2024-01-10T10:56:43;-1.00;99.90
19397;DHT22;9834;48.076;11.878;2024-01-10T10:59:12;-0.90;99.90
19397;DHT22;9834;48.076;11.878;2024-01-10T11:01:49;-0.80;99.90
19397;DHT22;9834;48.076;11.878;2024-01-10T11:04:19;-0.70;99.90
19397;DHT22;9834;48.076;11.878;2024-01-10T11:06:50;-0.60;99.90
19397;DHT22;9834;48.076;11.878;2024-01-10T11:09:21;-0.70;99.90
19397;DHT22;9834;48.076;11.878;2024-01-10T11:12:15;-0.70;99.90
19397;DHT22;9834;48.076;11.878;2024-01-10T11:14:59;-0.60;99.90
19397;DHT22;9834;48.076;11.878;2024-01-10T11:17:51;-0.40;99.90
19397;DHT22;9834;48.076;11.878;2024-01-10T11:20:52;-0.30;99.90
19397;DHT22;9834;48.076;11.878;2024-01-10T11:23:42;-0.30;99.90
19397;DHT22;9834;48.076;11.878;2024-01-10T11:26:11;-0.30;99.90
19397;DHT22;9834;48.076;11.878;2024-01-10T11:28:43;-0.30;99.90
19397;DHT22;9834;48.076;11.878;2024-01-10T11:31:14;-0.20;99.90
19397;DHT22;9834;48.076;11.878;2024-01-10T11:33:45;-0.10;99.90
19397;DHT22;9834;48.076;11.878;2024-01-10T11:36:20;-0.20;99.90
19397;DHT22;9834;48.076;11.878;2024-01-10T11:39:00;-0.30;99.90
19397;DHT22;9834;48.076;11.878;2024-01-10T11:41:38;-0.50;99.90
19397;DHT22;9834;48.076;11.878;2024-01-10T11:44:51;-1.20;99.90
19397;DHT22;9834;48.076;11.878;2024-01-10T11:47:20;-1.00;99.90
19397;DHT22;9834;48.076;11.878;2024-01-10T11:49:55;-1.10;99.90
19397;DHT22;9834;48.076;11.878;2024-01-10T11:52:32;-1.00;99.90
19397;DHT22;9834;48.076;11.878;2024-01-10T11:55:00;-1.20;99.90
19397;DHT22;9834;48.076;11.878;2024-01-10T11:57:29;-1.20;99.90
19397;DHT22;9834;48.076;11.878;2024-01-10T12:00:00;-1.00;99.90
19397;DHT22;9834;48.076;11.878;2024-01-10T12:02:31;-0.90;99.90
19397;DHT22;9834;48.076;11.878;2024-01-10T12:05:02;-1.00;99.90
19397;DHT22;9834;48.076;11.878;2024-01-10T12:07:34;-0.90;99.90
19397;DHT22;9834;48.076;11.878;2024-01-10T12:10:01;-0.80;99.90
19397;DHT22;9834;48.076;11.878;2024-01-10T12:12:29;-0.70;99.90
19397;DHT22;9834;48.076;11.878;2024-01-10T12:15:04;-0.70;99.90
19397;DHT22;9834;48.076;11.878;2024-01-10T12:17:36;-0.50;99.90
19397;DHT22;9834;48.076;11.878;2024-01-10T12:20:05;-0.50;99.90
19397;DHT22;9834;48.076;11.878;2024-01-10T12:22:34;-0.40;99.90
19397;DHT22;9834;48.076;11.878;2024-01-10T12:25:04;-0.40;99.90
19397;DHT22;9834;48.076;11.878;2024-01-10T12:27:36;-0.40;99.90
19397;DHT22;9834;48.076;11.878;2024-01-10T12:30:10;-0.60;99.90
19397;DHT22;9834;48.076;11.878;2024-01-10T12:32:53;-0.60;99.90
19397;DHT22;9834;48.076;11.878;2024-01-10T12:35:20;-0.70;99.90
19397;DHT22;9834;48.076;11.878;2024-01-10T12:37:56;-0.80;99.90
19397;DHT22;9834;48.076;11.878;2024-01-10T12:40:27;-0.80;99.90
19397;DHT22;9834;48.076;11.878;2024-01-10T12:43:04;-0.80;99.90
19397;DHT22;9834;48.076;11.878;2024-01-10T12:45:33;-0.80;99.90
19397;DHT22;9834;48.076;11.878;2024-01-10T12:48:00;-0.70;99.90
19397;DHT22;9834;48.076;11.878;2024-01-10T12:50:37;-0.70;99.90
19397;DHT22;9834;48.076;11.878;2024-01-10T12:53:06;-0.90;99.90
19397;DHT22;9834;48.076;11.878;2024-01-10T12:55:34;-0.70;99.90
19397;DHT22;9834;48.076;11.878;2024-01-10T12:58:04;-0.50;99.90
19397;DHT22;9834;48.076;11.878;2024-01-10T13:00:36;-0.50;99.90
19397;DHT22;9834;48.076;11.878;2024-01-10T13:03:04;-0.50;99.90
19397;DHT22;9834;48.076;11.878;2024-01-10T13:05:31;-0.40;99.90
19397;DHT22;9834;48.076;11.878;2024-01-10T13:07:59;-0.60;99.90
19397;DHT22;9834;48.076;11.878;2024-01-10T13:10:28;-0.60;99.90
19397;DHT22;9834;48.076;11.878;2024-01-10T13:12:55;-0.60;99.90
19397;DHT22;9834;48.076;11.878;2024-01-10T13:15:23;-0.70;99.90
19397;DHT22;9834;48.076;11.878;2024-01-10T13:17:53;-0.50;99.90
19397;DHT22;9834;48.076;11.878;2024-01-10T13:20:33;-0.20;99.90
19397;DHT22;9834;48.076;11.878;2024-01-10T13:23:07;0.00;99.90
19397;DHT22;9834;48.076;11.878;2024-01-10T13:25:39;0.00;99.90
19397;DHT22;9834;48.076;11.878;2024-01-10T13:28:10;0.00;99.90
19397;DHT22;9834;48.076;11.878;2024-01-10T13:30:39;0.00;99.90
19397;DHT22;9834;48.076;11.878;2024-01-10T13:33:08;-0.10;99.90
19397;DHT22;9834;48.076;11.878;2024-01-10T13:35:36;-0.10;99.90
19397;DHT22;9834;48.076;11.878;2024-01-10T13:38:04;-0.20;99.90
19397;DHT22;9834;48.076;11.878;2024-01-10T13:40:32;-0.10;99.90
19397;DHT22;9834;48.076;11.878;2024-01-10T13:43:04;-0.20;99.90
19397;DHT22;9834;48.076;11.878;2024-01-10T13:45:33;-0.30;99.90
19397;DHT22;9834;48.076;11.878;2024-01-10T13:48:04;-0.40;99.90
19397;DHT22;9834;48.076;11.878;2024-01-10T13:50:31;-0.40;99.90
19397;DHT22;9834;48.076;11.878;2024-01-10T13:53:02;-0.30;99.90
19397;DHT22;9834;48.076;11.878;2024-01-10T13:55:30;-0.50;99.90
19397;DHT22;9834;48.076;11.878;2024-01-10T13:57:58;-0.60;99.90
19397;DHT22;9834;48.076;11.878;2024-01-10T14:00:27;-0.70;99.90
19397;DHT22;9834;48.076;11.878;2024-01-10T14:02:54;-0.60;99.90
19397;DHT22;9834;48.076;11.878;2024-01-10T14:05:26;-0.50;99.90
19397;DHT22;9834;48.076;11.878;2024-01-10T14:07:55;-0.70;99.90
19397;DHT22;9834;48.076;11.878;2024-01-10T14:10:24;-0.80;99.90
19397;DHT22;9834;48.076;11.878;2024-01-10T14:12:51;-0.90;99.90
19397;DHT22;9834;48.076;11.878;2024-01-10T14:15:19;-1.10;99.90
19397;DHT22;9834;48.076;11.878;2024-01-10T14:17:48;-1.10;99.90
19397;DHT22;9834;48.076;11.878;2024-01-10T14:20:19;-1.20;99.90
19397;DHT22;9834;48.076;11.878;2024-01-10T14:22:47;-1.30;99.90
19397;DHT22;9834;48.076;11.878;2024-01-10T14:25:25;-1.50;99.90
19397;DHT22;9834;48.076;11.878;2024-01-10T14:27:52;-1.40;99.90
19397;DHT22;9834;48.076;11.878;2024-01-10T14:30:27;-1.40;99.90
19397;DHT22;9834;48.076;11.878;2024-01-10T14:33:00;-1.50;99.90
19397;DHT22;9834;48.076;11.878;2024-01-10T14:35:28;-1.50;99.90
19397;DHT22;9834;48.076;11.878;2024-01-10T14:38:02;-1.50;99.90
19397;DHT22;9834;48.076;11.878;2024-01-10T14:40:36;-1.50;99.90
19397;DHT22;9834;48.076;11.878;2024-01-10T14:43:07;-1.50;99.90
19397;DHT22;9834;48.076;11.878;2024-01-10T14:45:37;-1.50;99.90
19397;DHT22;9834;48.076;11.878;2024-01-10T14:48:06;-1.60;99.90
19397;DHT22;9834;48.076;11.878;2024-01-10T14:50:34;-1.70;99.90
19397;DHT22;9834;48.076;11.878;2024-01-10T14:53:04;-1.70;99.90
19397;DHT22;9834;48.076;11.878;2024-01-10T14:55:36;-1.80;99.90
19397;DHT22;9834;48.076;11.878;2024-01-10T14:58:05;-1.90;99.90
19397;DHT22;9834;48.076;11.878;2024-01-10T15:00:33;-1.90;99.90
19397;DHT22;9834;48.076;11.878;2024-01-10T15:03:01;-2.00;99.90
19397;DHT22;9834;48.076;11.878;2024-01-10T15:05:34;-2.00;99.90
19397;DHT22;9834;48.076;11.878;2024-01-10T15:08:01;-2.00;99.90
19397;DHT22;9834;48.076;11.878;2024-01-10T15:10:31;-2.10;99.90
19397;DHT22;9834;48.076;11.878;2024-01-10T15:12:58;-2.10;99.90
19397;DHT22;9834;48.076;11.878;2024-01-10T15:15:25;-2.20;99.90
19397;DHT22;9834;48.076;11.878;2024-01-10T15:17:52;-2.30;99.90
19397;DHT22;9834;48.076;11.878;2024-01-10T15:20:19;-2.40;99.90
19397;DHT22;9834;48.076;11.878;2024-01-10T15:22:55;-2.50;99.90
19397;DHT22;9834;48.076;11.878;2024-01-10T15:25:23;-2.50;99.90
19397;DHT22;9834;48.076;11.878;2024-01-10T15:27:51;-2.60;99.90
19397;DHT22;9834;48.076;11.878;2024-01-10T15:30:32;-2.70;99.90
19397;DHT22;9834;48.076;11.878;2024-01-10T15:33:00;-2.80;99.90
19397;DHT22;9834;48.076;11.878;2024-01-10T15:35:27;-2.90;99.90
19397;DHT22;9834;48.076;11.878;2024-01-10T15:37:56;-3.00;99.90
19397;DHT22;9834;48.076;11.878;2024-01-10T15:40:23;-3.10;99.90
19397;DHT22;9834;48.076;11.878;2024-01-10T15:42:53;-3.10;99.90
19397;DHT22;9834;48.076;11.878;2024-01-10T15:45:21;-3.10;99.90
19397;DHT22;9834;48.076;11.878;2024-01-10T15:47:51;-3.10;99.90
19397;DHT22;9834;48.076;11.878;2024-01-10T15:50:22;-3.20;99.90
19397;DHT22;9834;48.076;11.878;2024-01-10T15:52:53;-3.20;99.90
19397;DHT22;9834;48.076;11.878;2024-01-10T15:55:22;-3.20;99.90